createdAt,value
2018-06-22T00:02:15.064Z,99.90
2018-06-22T00:04:44.136Z,99.90
2018-06-22T00:07:13.152Z,99.90
2018-06-22T00:09:42.208Z,99.90
2018-06-22T00:12:11.211Z,99.90
2018-06-22T00:14:40.248Z,99.90
2018-06-22T00:17:09.287Z,99.90
2018-06-22T00:19:38.300Z,99.90
2018-06-22T00:22:07.399Z,99.90
2018-06-22T00:24:36.423Z,99.90
2018-06-22T00:27:05.583Z,99.90
2018-06-22T00:29:34.628Z,99.90
2018-06-22T00:32:03.640Z,99.90
2018-06-22T00:37:01.317Z,99.90
2018-06-22T00:39:30.402Z,99.90
2018-06-22T00:41:59.400Z,99.90
2018-06-22T00:44:28.436Z,99.90
2018-06-22T00:46:57.434Z,99.90
2018-06-22T00:49:26.510Z,99.90
2018-06-22T00:51:55.536Z,99.90
2018-06-22T00:54:24.580Z,99.90
2018-06-22T00:56:53.620Z,99.90
2018-06-22T00:59:22.663Z,99.90
2018-06-22T01:01:51.713Z,99.90
2018-06-22T01:04:20.769Z,99.90
2018-06-22T01:06:49.825Z,99.90
2018-06-22T01:09:18.885Z,99.90
2018-06-22T01:11:47.900Z,99.90
2018-06-22T01:14:17.010Z,99.90
2018-06-22T01:16:46.001Z,99.90
2018-06-22T01:19:15.026Z,99.90
2018-06-22T01:21:44.077Z,99.90
2018-06-22T01:24:13.124Z,99.90
2018-06-22T01:29:16.288Z,99.90
2018-06-22T01:31:45.292Z,99.90
2018-06-22T01:34:14.327Z,99.90
2018-06-22T01:36:43.384Z,99.90
2018-06-22T01:39:12.464Z,99.90
2018-06-22T01:41:41.520Z,99.90
2018-06-22T01:44:10.557Z,99.90
2018-06-22T01:46:39.568Z,99.90
2018-06-22T01:49:08.609Z,99.90
2018-06-22T01:51:37.620Z,99.90
2018-06-22T01:54:06.673Z,99.90
2018-06-22T01:56:35.684Z,99.90
2018-06-22T01:59:04.728Z,99.90
2018-06-22T02:01:34.063Z,99.90
2018-06-22T02:04:03.099Z,99.90
2018-06-22T02:06:32.108Z,99.90
2018-06-22T02:09:01.165Z,99.90
2018-06-22T02:11:30.196Z,99.90
2018-06-22T02:13:59.241Z,99.90
2018-06-22T02:16:28.258Z,99.90
2018-06-22T02:18:57.296Z,99.90
2018-06-22T02:21:26.305Z,99.90
2018-06-22T02:23:55.354Z,99.90
2018-06-22T02:26:24.395Z,99.90
2018-06-22T02:28:53.407Z,99.90
2018-06-22T02:33:51.165Z,99.90
2018-06-22T02:36:20.208Z,99.90
2018-06-22T02:38:49.248Z,99.90
2018-06-22T02:41:18.258Z,99.90
2018-06-22T02:43:47.364Z,99.90
2018-06-22T02:46:16.424Z,99.90
2018-06-22T02:48:45.657Z,99.90
2018-06-22T02:51:14.696Z,99.90
2018-06-22T02:53:43.728Z,99.90
2018-06-22T02:56:12.736Z,99.90
2018-06-22T02:58:41.777Z,99.90
2018-06-22T03:01:10.780Z,99.90
2018-06-22T03:03:39.794Z,99.90
2018-06-22T03:06:08.869Z,99.90
2018-06-22T03:08:37.897Z,99.90
2018-06-22T03:11:06.930Z,99.90
2018-06-22T03:13:35.961Z,99.90
2018-06-22T03:16:05.640Z,99.90
2018-06-22T03:18:34.670Z,99.90
2018-06-22T03:21:03.708Z,99.90
2018-06-22T03:23:32.716Z,99.90
2018-06-22T03:26:01.761Z,99.90
2018-06-22T03:28:30.769Z,99.90
2018-06-22T03:30:59.791Z,99.90
2018-06-22T03:33:28.833Z,99.90
2018-06-22T03:35:57.903Z,99.90
2018-06-22T03:38:26.924Z,99.90
2018-06-22T03:40:56.002Z,99.90
2018-06-22T03:43:25.004Z,99.90
2018-06-22T03:45:54.048Z,99.90
2018-06-22T03:48:23.100Z,99.90
2018-06-22T03:50:52.163Z,99.90
2018-06-22T03:53:21.216Z,99.90
2018-06-22T03:55:50.266Z,99.90
2018-06-22T03:58:19.275Z,99.90
2018-06-22T04:00:48.319Z,99.90
2018-06-22T04:03:17.353Z,99.90
2018-06-22T04:05:46.386Z,99.90
2018-06-22T04:08:15.424Z,99.90
2018-06-22T04:10:44.448Z,99.90
2018-06-22T04:13:13.497Z,99.90
2018-06-22T04:15:42.594Z,99.90
2018-06-22T04:18:11.604Z,99.90
2018-06-22T04:20:40.676Z,99.90
2018-06-22T04:23:09.746Z,99.90
2018-06-22T04:25:38.827Z,99.90
2018-06-22T04:28:07.856Z,99.90
2018-06-22T04:30:36.892Z,99.90
2018-06-22T04:33:05.928Z,99.90
2018-06-22T04:35:35.017Z,99.90
2018-06-22T04:38:04.025Z,99.90
2018-06-22T04:40:33.117Z,99.90
2018-06-22T04:43:02.160Z,99.90
2018-06-22T04:45:31.265Z,99.90
2018-06-22T04:48:00.553Z,99.90
2018-06-22T04:50:29.625Z,99.90
2018-06-22T04:52:58.619Z,99.90
2018-06-22T04:55:27.655Z,99.90
2018-06-22T04:57:56.695Z,99.90
2018-06-22T05:00:25.731Z,99.90
2018-06-22T05:02:54.804Z,99.90
2018-06-22T05:05:23.842Z,99.90
2018-06-22T05:07:52.884Z,99.90
2018-06-22T05:10:21.943Z,99.90
2018-06-22T05:12:50.964Z,99.90
2018-06-22T05:15:20.005Z,99.90
2018-06-22T05:17:49.012Z,99.90
2018-06-22T05:20:18.075Z,99.90
2018-06-22T05:22:47.189Z,99.90
2018-06-22T05:25:16.181Z,99.90
2018-06-22T05:27:45.238Z,99.90
2018-06-22T05:30:14.400Z,99.90
2018-06-22T05:32:43.412Z,99.90
2018-06-22T05:35:12.468Z,99.90
2018-06-22T05:37:41.476Z,99.90
2018-06-22T05:40:10.525Z,99.90
2018-06-22T05:42:39.524Z,99.90
2018-06-22T05:45:08.552Z,99.90
2018-06-22T05:47:37.604Z,99.90
2018-06-22T05:50:06.632Z,99.90
2018-06-22T05:52:35.667Z,99.90
2018-06-22T05:55:04.828Z,99.90
2018-06-22T05:57:33.971Z,99.90
2018-06-22T06:00:03.072Z,99.90
2018-06-22T06:02:32.108Z,99.90
2018-06-22T06:05:01.136Z,99.90
2018-06-22T06:07:30.201Z,99.90
2018-06-22T06:09:59.213Z,99.90
2018-06-22T06:12:28.319Z,99.90
2018-06-22T06:14:57.344Z,99.90
2018-06-22T06:17:26.396Z,99.90
2018-06-22T06:19:56.338Z,99.90
2018-06-22T06:22:25.435Z,99.90
2018-06-22T06:24:54.432Z,99.90
2018-06-22T06:27:23.511Z,99.90
2018-06-22T06:32:21.151Z,99.90
2018-06-22T06:34:50.745Z,99.90
2018-06-22T06:37:19.802Z,99.90
2018-06-22T06:39:48.939Z,99.90
2018-06-22T06:42:18.034Z,99.90
2018-06-22T06:44:47.051Z,99.90
2018-06-22T06:47:16.191Z,99.90
2018-06-22T06:49:45.673Z,99.90
2018-06-22T06:52:14.801Z,99.90
2018-06-22T06:54:44.071Z,99.90
2018-06-22T06:57:13.397Z,99.90
2018-06-22T06:59:42.607Z,99.90
2018-06-22T07:02:12.677Z,99.90
2018-06-22T07:04:41.917Z,99.90
2018-06-22T07:07:11.217Z,99.90
2018-06-22T07:09:40.497Z,99.90
2018-06-22T07:12:11.151Z,99.90
2018-06-22T07:14:40.970Z,99.90
2018-06-22T07:17:10.100Z,99.90
2018-06-22T07:19:39.093Z,99.90
2018-06-22T07:22:08.264Z,99.90
2018-06-22T07:24:37.271Z,99.90
2018-06-22T07:27:06.629Z,99.90
2018-06-22T07:29:35.656Z,99.90
2018-06-22T07:32:05.465Z,99.90
2018-06-22T07:34:34.480Z,99.90
2018-06-22T07:37:03.549Z,99.90
2018-06-22T07:39:32.608Z,99.90
2018-06-22T07:42:01.878Z,99.90
2018-06-22T07:44:30.924Z,99.90
2018-06-22T07:46:59.925Z,99.90
2018-06-22T07:49:29.198Z,99.90
2018-06-22T07:51:58.256Z,99.90
2018-06-22T07:54:27.423Z,99.90
2018-06-22T07:56:56.697Z,99.90
2018-06-22T07:59:26.096Z,99.90
2018-06-22T08:01:55.536Z,99.90
2018-06-22T08:04:25.170Z,99.90
2018-06-22T08:06:54.276Z,99.90
2018-06-22T08:09:23.466Z,99.90
2018-06-22T08:11:52.536Z,99.90
2018-06-22T08:14:21.624Z,99.90
2018-06-22T08:16:50.774Z,99.90
2018-06-22T08:19:19.810Z,99.90
2018-06-22T08:21:48.879Z,99.90
2018-06-22T08:24:17.900Z,99.90
2018-06-22T08:26:47.318Z,99.90
2018-06-22T08:29:16.527Z,99.90
2018-06-22T08:31:45.542Z,99.90
2018-06-22T08:34:14.548Z,99.90
2018-06-22T08:36:43.588Z,99.90
2018-06-22T08:39:12.752Z,99.90
2018-06-22T08:41:42.120Z,99.90
2018-06-22T08:44:11.435Z,99.90
2018-06-22T08:46:40.504Z,99.90
2018-06-22T08:49:09.613Z,99.90
2018-06-22T08:51:38.620Z,99.90
2018-06-22T08:54:07.682Z,99.90
2018-06-22T08:56:36.767Z,99.90
2018-06-22T08:59:05.840Z,99.90
2018-06-22T09:01:34.908Z,99.30
2018-06-22T09:04:04.046Z,99.00
2018-06-22T09:06:33.172Z,99.90
2018-06-22T09:09:02.268Z,99.90
2018-06-22T09:11:31.393Z,99.90
2018-06-22T09:14:00.434Z,99.90
2018-06-22T09:16:29.440Z,99.30
2018-06-22T09:18:58.476Z,98.20
2018-06-22T09:21:27.545Z,98.20
2018-06-22T09:23:57.357Z,98.30
2018-06-22T09:28:55.083Z,99.70
2018-06-22T09:31:24.133Z,98.80
2018-06-22T09:33:53.620Z,97.50
2018-06-22T09:36:22.723Z,97.80
2018-06-22T09:38:51.747Z,96.60
2018-06-22T09:41:20.796Z,96.40
2018-06-22T09:43:49.941Z,96.70
2018-06-22T09:48:47.788Z,96.70
2018-06-22T09:51:16.833Z,97.10
2018-06-22T09:53:46.363Z,97.20
2018-06-22T09:56:15.368Z,96.40
2018-06-22T09:58:44.420Z,96.10
2018-06-22T10:01:13.437Z,95.80
2018-06-22T10:03:42.478Z,94.90
2018-06-22T10:06:11.583Z,96.10
2018-06-22T10:08:40.621Z,94.60
2018-06-22T10:11:09.655Z,94.70
2018-06-22T10:13:38.704Z,93.80
2018-06-22T10:16:07.828Z,94.50
2018-06-22T10:18:36.855Z,94.70
2018-06-22T10:21:05.970Z,92.80
2018-06-22T10:23:35.094Z,93.90
2018-06-22T10:26:04.153Z,94.70
2018-06-22T10:28:33.222Z,95.40
2018-06-22T10:31:02.351Z,94.80
2018-06-22T10:33:31.383Z,95.40
2018-06-22T10:36:00.475Z,95.50
2018-06-22T10:38:29.656Z,94.90
2018-06-22T10:40:58.736Z,94.70
2018-06-22T10:43:27.792Z,93.30
2018-06-22T10:45:56.928Z,93.50
2018-06-22T10:48:25.955Z,92.90
2018-06-22T10:50:55.017Z,94.10
2018-06-22T10:53:24.337Z,93.20
2018-06-22T10:55:53.644Z,93.40
2018-06-22T10:58:22.712Z,93.10
2018-06-22T11:00:51.867Z,93.60
2018-06-22T11:03:21.042Z,93.70
2018-06-22T11:05:50.188Z,93.80
2018-06-22T11:08:19.228Z,93.60
2018-06-22T11:10:48.349Z,91.10
2018-06-22T11:13:17.624Z,90.50
2018-06-22T11:15:46.713Z,91.70
2018-06-22T11:18:15.865Z,91.50
2018-06-22T11:20:44.953Z,91.40
2018-06-22T11:23:14.040Z,91.10
2018-06-22T11:25:43.301Z,91.80
2018-06-22T11:28:12.332Z,91.70
2018-06-22T11:30:41.455Z,90.70
2018-06-22T11:33:10.649Z,90.40
2018-06-22T11:35:39.854Z,91.60
2018-06-22T11:38:08.877Z,92.50
2018-06-22T11:40:38.203Z,90.60
2018-06-22T11:43:07.342Z,90.50
2018-06-22T11:45:36.375Z,91.20
2018-06-22T11:48:05.700Z,90.90
2018-06-22T11:50:34.768Z,92.10
2018-06-22T11:53:03.857Z,91.70
2018-06-22T11:55:32.964Z,91.40
2018-06-22T11:58:02.009Z,91.50
2018-06-22T12:00:31.070Z,90.60
2018-06-22T12:03:00.167Z,90.60
2018-06-22T12:05:29.289Z,85.70
2018-06-22T12:07:58.440Z,88.10
2018-06-22T12:10:27.839Z,90.10
2018-06-22T12:12:56.868Z,88.50
2018-06-22T12:15:25.910Z,90.20
2018-06-22T12:17:54.988Z,91.20
2018-06-22T12:20:24.044Z,91.10
2018-06-22T12:22:53.179Z,90.60
2018-06-22T12:27:51.075Z,90.80
2018-06-22T12:30:20.516Z,88.60
2018-06-22T12:32:49.849Z,90.30
2018-06-22T12:35:18.908Z,90.10
2018-06-22T12:37:47.969Z,87.20
2018-06-22T12:40:17.960Z,85.90
2018-06-22T12:42:47.026Z,85.70
2018-06-22T12:45:16.206Z,86.70
2018-06-22T12:47:45.217Z,84.60
2018-06-22T12:50:14.288Z,83.90
2018-06-22T12:52:43.333Z,82.00
2018-06-22T12:55:12.425Z,78.10
2018-06-22T12:57:41.607Z,80.70
2018-06-22T13:00:11.155Z,80.90
2018-06-22T13:02:40.241Z,82.60
2018-06-22T13:05:09.341Z,81.50
2018-06-22T13:07:38.726Z,82.30
2018-06-22T13:12:36.567Z,84.20
2018-06-22T13:15:05.933Z,82.00
2018-06-22T13:17:43.370Z,83.40
2018-06-22T13:20:22.536Z,82.50
2018-06-22T13:22:51.580Z,81.60
2018-06-22T13:25:20.736Z,82.00
2018-06-22T13:30:18.461Z,81.70
2018-06-22T13:32:47.540Z,83.30
2018-06-22T13:35:16.642Z,83.10
2018-06-22T13:37:45.855Z,83.70
2018-06-22T13:40:15.000Z,82.50
2018-06-22T13:42:44.315Z,83.80
2018-06-22T13:45:13.404Z,81.00
2018-06-22T13:47:42.504Z,82.20
2018-06-22T13:50:11.577Z,78.80
2018-06-22T13:52:40.993Z,79.10
2018-06-22T13:55:36.410Z,80.80
2018-06-22T13:58:13.045Z,81.80
2018-06-22T14:00:48.789Z,82.20
2018-06-22T14:03:45.504Z,77.50
2018-06-22T14:06:24.640Z,78.70
2018-06-22T14:08:55.672Z,79.60
2018-06-22T14:11:55.058Z,79.60
2018-06-22T14:14:27.641Z,79.90
2018-06-22T14:21:45.815Z,78.80
2018-06-22T14:24:40.324Z,82.50
2018-06-22T14:27:55.193Z,82.10
2018-06-22T15:19:09.057Z,81.50
2018-06-22T15:25:00.873Z,77.00
2018-06-22T15:27:29.924Z,78.80
2018-06-22T15:29:58.940Z,78.70
2018-06-22T15:32:28.021Z,79.90
2018-06-22T15:35:02.368Z,80.20
2018-06-22T15:37:36.648Z,80.90
2018-06-22T15:40:11.122Z,81.00
2018-06-22T15:42:45.415Z,82.80
2018-06-22T15:45:19.781Z,80.50
2018-06-22T15:47:54.165Z,77.10
2018-06-22T15:50:28.423Z,76.20
2018-06-22T15:53:02.931Z,76.90
2018-06-22T15:55:37.401Z,77.80
2018-06-22T15:58:06.608Z,79.30
2018-06-22T16:00:35.689Z,81.10
2018-06-22T16:03:10.425Z,81.90
2018-06-22T16:05:39.536Z,82.10
2018-06-22T16:08:08.864Z,82.50
2018-06-22T16:10:37.968Z,83.90
2018-06-22T16:13:12.441Z,84.20
2018-06-22T16:15:46.764Z,82.80
2018-06-22T16:18:21.180Z,80.70
2018-06-22T16:20:55.699Z,81.50
2018-06-22T16:23:29.924Z,81.20
2018-06-22T16:26:04.380Z,81.00
2018-06-22T16:28:33.491Z,82.10
2018-06-22T16:31:03.580Z,82.10
2018-06-22T16:36:01.357Z,83.80
2018-06-22T16:38:30.598Z,83.40
2018-06-22T16:40:59.676Z,84.20
2018-06-22T16:43:28.762Z,84.20
2018-06-22T16:45:57.856Z,86.10
2018-06-22T16:48:26.908Z,86.40
2018-06-22T16:50:56.033Z,84.80
2018-06-22T16:53:25.148Z,84.60
2018-06-22T16:58:28.415Z,86.70
2018-06-22T17:00:57.472Z,87.10
2018-06-22T17:03:26.585Z,87.20
2018-06-22T17:05:55.959Z,84.60
2018-06-22T17:08:30.380Z,83.80
2018-06-22T17:11:04.595Z,84.00
2018-06-22T17:13:38.785Z,84.50
2018-06-22T17:16:13.239Z,84.90
2018-06-22T17:18:47.504Z,83.80
2018-06-22T17:21:16.608Z,84.40
2018-06-22T17:23:45.660Z,84.20
2018-06-22T17:26:14.741Z,85.00
2018-06-22T17:28:43.799Z,86.30
2018-06-22T17:31:12.852Z,86.20
2018-06-22T17:33:41.967Z,85.70
2018-06-22T17:36:11.001Z,86.40
2018-06-22T17:38:40.094Z,86.40
2018-06-22T17:41:09.152Z,87.50
2018-06-22T17:43:38.231Z,87.70
2018-06-22T17:46:07.314Z,88.10
2018-06-22T17:48:36.440Z,88.00
2018-06-22T17:51:05.540Z,88.80
2018-06-22T17:53:34.657Z,89.00
2018-06-22T17:56:03.769Z,89.50
2018-06-22T18:01:13.624Z,90.10
2018-06-22T18:03:48.011Z,90.40
2018-06-22T18:06:22.460Z,90.50
2018-06-22T18:08:51.488Z,90.80
2018-06-22T18:11:25.765Z,90.90
2018-06-22T18:13:54.828Z,90.80
2018-06-22T18:16:23.907Z,90.90
2018-06-22T18:18:52.956Z,91.20
2018-06-22T18:23:50.791Z,91.30
2018-06-22T18:26:19.864Z,91.50
2018-06-22T18:28:49.486Z,91.90
2018-06-22T18:31:19.072Z,92.40
2018-06-22T18:33:48.201Z,92.50
2018-06-22T18:36:17.273Z,92.70
2018-06-22T18:38:46.320Z,92.80
2018-06-22T18:41:15.397Z,93.00
2018-06-22T18:43:49.776Z,93.10
2018-06-22T18:46:18.861Z,93.30
2018-06-22T18:48:47.948Z,93.50
2018-06-22T18:51:17.047Z,94.30
2018-06-22T18:53:51.280Z,93.90
2018-06-22T18:56:25.703Z,94.30
2018-06-22T19:01:01.485Z,94.10
2018-06-22T19:03:35.723Z,94.30
2018-06-22T19:06:04.992Z,95.00
2018-06-22T19:08:34.077Z,95.20
2018-06-22T19:11:03.161Z,95.50
2018-06-22T19:13:32.212Z,95.50
2018-06-22T19:16:01.277Z,95.80
2018-06-22T19:18:30.367Z,95.90
2018-06-22T19:20:59.444Z,96.10
2018-06-22T19:23:28.463Z,96.20
2018-06-22T19:25:57.528Z,96.40
2018-06-22T19:28:26.586Z,96.90
2018-06-22T19:30:55.651Z,97.10
2018-06-22T19:33:24.713Z,97.40
2018-06-22T19:35:53.797Z,97.60
2018-06-22T19:38:22.935Z,97.90
2018-06-22T19:40:52.089Z,98.20
2018-06-22T19:43:26.361Z,98.30
2018-06-22T19:46:00.705Z,98.60
2018-06-22T19:48:34.946Z,98.90
2018-06-22T19:51:09.371Z,99.00
2018-06-22T19:53:43.712Z,99.30
2018-06-22T19:56:12.763Z,99.50
2018-06-22T19:58:41.816Z,99.60
2018-06-22T20:01:10.871Z,99.90
2018-06-22T20:03:39.952Z,99.90
2018-06-22T20:06:09.040Z,99.90
2018-06-22T20:08:38.145Z,99.90
2018-06-22T20:11:07.200Z,99.90
2018-06-22T20:13:36.349Z,99.90
2018-06-22T20:16:05.461Z,99.90
2018-06-22T20:18:34.548Z,99.90
2018-06-22T20:21:04.600Z,99.90
2018-06-22T20:23:33.675Z,99.90
2018-06-22T20:26:02.750Z,99.90
2018-06-22T20:28:31.846Z,99.90
2018-06-22T20:31:00.921Z,99.90
2018-06-22T20:33:29.960Z,99.90
2018-06-22T20:36:04.348Z,99.90
2018-06-22T20:38:38.624Z,99.90
2018-06-22T20:41:12.941Z,99.90
2018-06-22T20:43:47.446Z,99.90
2018-06-22T20:46:22.013Z,99.90
2018-06-22T20:48:56.533Z,99.90
2018-06-22T20:51:29.839Z,99.90
2018-06-22T20:53:58.951Z,99.90
2018-06-22T20:56:27.976Z,99.90
2018-06-22T20:58:57.021Z,99.90
2018-06-22T21:03:54.847Z,99.90
2018-06-22T21:06:23.896Z,99.90
2018-06-22T21:08:52.971Z,99.90
2018-06-22T21:11:22.040Z,99.90
2018-06-22T21:13:51.112Z,99.90
2018-06-22T21:16:20.178Z,99.90
2018-06-22T21:18:49.204Z,99.90
2018-06-22T21:21:23.700Z,99.90
2018-06-22T21:23:52.768Z,99.90
2018-06-22T21:26:21.836Z,99.90
2018-06-22T21:28:56.307Z,99.90
2018-06-22T21:31:30.749Z,99.90
2018-06-22T21:34:05.291Z,99.90
2018-06-22T21:36:39.528Z,99.90
2018-06-22T21:39:10.268Z,99.90
2018-06-22T21:41:39.427Z,99.90
2018-06-22T21:44:08.481Z,99.90
2018-06-22T21:46:37.570Z,99.90
2018-06-22T21:49:06.661Z,99.90
2018-06-22T21:51:35.735Z,99.90
2018-06-22T21:54:04.855Z,99.90
2018-06-22T21:56:33.904Z,99.90
2018-06-22T21:59:02.984Z,99.90
2018-06-22T22:04:00.692Z,99.90
2018-06-22T22:06:29.753Z,99.90
2018-06-22T22:08:58.847Z,99.90
2018-06-22T22:11:33.254Z,99.90
2018-06-22T22:14:02.324Z,99.90
2018-06-22T22:16:31.348Z,99.90
2018-06-22T22:19:00.388Z,99.90
2018-06-22T22:21:29.413Z,99.90
2018-06-22T22:23:58.517Z,99.90
2018-06-22T22:26:27.622Z,99.90
2018-06-22T22:28:56.647Z,99.90
2018-06-22T22:31:25.680Z,99.90
2018-06-22T22:33:54.735Z,99.90
2018-06-22T22:36:23.784Z,99.90
2018-06-22T22:38:52.852Z,99.90
2018-06-22T22:41:21.910Z,99.90
2018-06-22T22:43:50.971Z,99.90
2018-06-22T22:46:20.000Z,99.90
2018-06-22T22:48:49.089Z,99.90
2018-06-22T22:51:18.161Z,99.90
2018-06-22T22:53:47.168Z,99.90
2018-06-22T22:56:16.240Z,99.90
2018-06-22T22:58:45.316Z,99.90
2018-06-22T23:01:14.343Z,99.90
2018-06-22T23:03:43.404Z,99.90
2018-06-22T23:06:12.493Z,99.90
2018-06-22T23:08:41.736Z,99.90
2018-06-22T23:11:10.777Z,99.90
2018-06-22T23:13:39.803Z,99.90
2018-06-22T23:16:09.012Z,99.90
2018-06-22T23:18:38.071Z,99.90
2018-06-22T23:21:07.144Z,99.90
2018-06-22T23:23:38.503Z,99.90
2018-06-22T23:26:07.776Z,99.90
2018-06-22T23:28:36.915Z,99.90
2018-06-22T23:31:06.904Z,99.90
2018-06-22T23:33:36.319Z,99.90
2018-06-22T23:36:05.629Z,99.90
2018-06-22T23:38:34.914Z,99.90
2018-06-22T23:41:03.988Z,99.90
2018-06-22T23:46:01.732Z,99.90
2018-06-22T23:48:30.832Z,99.90
2018-06-22T23:50:59.902Z,99.90
2018-06-22T23:53:28.923Z,99.90
2018-06-22T23:55:58.003Z,99.90
2018-06-22T23:58:27.028Z,99.90
